»·PEaware :: N1399 KYKM-KPDX

N1399 :: KYKM-KPDX

FLIGHT INFORMATION

Flight Status: Arrived
Operator: Privately registered:
United States
More flights under this callsign
Pilot: David C. (16084)
Aircraft: BEECH AIRCRAFT SUPER KING AIR 350
(B350)
More flights by this aircraft type
Origin: KYKM Yakima Air Term/Mcallister
United States
Destination: KPDX Portland Intl
United States
More flights between these airports :: More routes between these airports
Route: NACHES4 YKM V25 LTJ YENTL HHOOD4
File this flight plan on PilotEdge
Remarks:
Altitude:
(Current/Filed)
18,000ft
Speed:
(Current/Filed)
335kts
Departed: 13-Apr-20 05:50 PM
Arrived: 13-Apr-20 06:25 PM
Distance/Time
Traveled:
103nm/0:35
Distance/Time
To Go:
Arrived

Flight Plot

Page will automatically refresh every two minutes.


Map Options




Map Legend


Flown Route
Filed Route
Departure Airport
Arrival Airport
Navaid (VOR, NDB)
Fix

Horizontal Profiles

Position Reports

Time Latitude Longitude Heading Altitude Ground
Speed
13-Apr-20 17:09 46.572749 -120.553242 288 1094ft 0kts
13-Apr-20 17:10 46.572749 -120.553242 288 1094ft 0kts
13-Apr-20 17:11 46.572749 -120.553242 288 1094ft 0kts
13-Apr-20 17:12 46.572749 -120.553242 288 1094ft 0kts
13-Apr-20 17:13 46.572749 -120.553242 288 1094ft 0kts
13-Apr-20 17:14 46.572749 -120.553242 288 1094ft 0kts
13-Apr-20 17:15 46.572749 -120.553242 288 1094ft 0kts
13-Apr-20 17:16 46.572749 -120.553242 288 1094ft 0kts
13-Apr-20 17:17 46.572749 -120.553242 288 1094ft 0kts
13-Apr-20 17:18 46.572749 -120.553242 289 1094ft 0kts
13-Apr-20 17:19 46.572749 -120.553242 289 1094ft 0kts
13-Apr-20 17:20 46.572749 -120.553242 289 1094ft 0kts
13-Apr-20 17:21 46.572749 -120.553242 289 1094ft 0kts
13-Apr-20 17:22 46.572749 -120.553242 289 1094ft 0kts
13-Apr-20 17:23 46.572749 -120.553242 289 1094ft 0kts
13-Apr-20 17:24 46.572749 -120.553242 289 1094ft 0kts
13-Apr-20 17:25 46.572749 -120.553242 289 1094ft 0kts
13-Apr-20 17:26 46.572749 -120.553242 289 1094ft 0kts
13-Apr-20 17:27 46.572749 -120.553242 289 1094ft 0kts
13-Apr-20 17:28 46.572749 -120.553242 289 1094ft 0kts
13-Apr-20 17:29 46.572749 -120.553242 289 1094ft 0kts
13-Apr-20 17:30 46.572749 -120.553242 289 1094ft 0kts
13-Apr-20 17:32 46.572749 -120.553242 289 1094ft 0kts
13-Apr-20 17:33 46.572749 -120.553242 288 1094ft 0kts
13-Apr-20 17:34 46.572749 -120.553242 288 1094ft 0kts
13-Apr-20 17:35 46.572749 -120.553242 288 1094ft 0kts
13-Apr-20 17:36 46.572749 -120.553242 288 1094ft 0kts
13-Apr-20 17:37 46.572759 -120.553330 269 1094ft 1kts
13-Apr-20 17:38 46.572685 -120.553493 205 1094ft 0kts
13-Apr-20 17:39 46.572685 -120.553493 205 1094ft 0kts
13-Apr-20 17:40 46.572274 -120.553596 151 1094ft 7kts
13-Apr-20 17:41 46.570850 -120.548014 107 1083ft 17kts
13-Apr-20 17:42 46.569218 -120.541598 112 1072ft 16kts
13-Apr-20 17:43 46.567620 -120.535183 109 1059ft 16kts
13-Apr-20 17:44 46.566511 -120.531588 157 1053ft 0kts
13-Apr-20 17:45 46.566511 -120.531588 157 1053ft 0kts
13-Apr-20 17:46 46.566511 -120.531588 157 1053ft 0kts
13-Apr-20 17:47 46.566511 -120.531588 157 1053ft 0kts
13-Apr-20 17:48 46.566511 -120.531588 157 1053ft 0kts
13-Apr-20 17:48 46.566070 -120.531453 185 1053ft 10kts
13-Apr-20 17:50 46.576825 -120.566810 315 1727ft 160kts
13-Apr-20 17:51 46.619858 -120.594818 334 3624ft 181kts
13-Apr-20 17:52 46.667245 -120.621714 334 5533ft 183kts
13-Apr-20 17:52 46.707263 -120.632515 26 7065ft 193kts
13-Apr-20 17:53 46.703140 -120.562472 150 8906ft 209kts
13-Apr-20 17:55 46.640568 -120.509218 148 10017ft 257kts
13-Apr-20 17:55 46.589887 -120.464050 156 11360ft 248kts
13-Apr-20 17:56 46.526418 -120.478714 212 13089ft 239kts
13-Apr-20 17:57 46.467402 -120.524785 213 14724ft 244kts
13-Apr-20 17:58 46.406974 -120.571618 213 16274ft 250kts
13-Apr-20 17:59 46.344622 -120.619873 213 17814ft 258kts
13-Apr-20 18:00 46.276598 -120.672728 212 18342ft 308kts
13-Apr-20 18:01 46.196118 -120.734869 212 18328ft 343kts
13-Apr-20 18:02 46.110100 -120.800870 212 18330ft 357kts
13-Apr-20 18:03 46.022080 -120.868508 212 18342ft 359kts
13-Apr-20 18:04 45.933744 -120.935973 212 18351ft 360kts
13-Apr-20 18:05 45.848614 -121.000434 211 18338ft 358kts
13-Apr-20 18:06 45.760967 -121.066530 211 18340ft 355kts
13-Apr-20 18:07 45.694820 -121.160264 251 18346ft 331kts
13-Apr-20 18:08 45.657363 -121.280485 253 18328ft 330kts
13-Apr-20 18:09 45.620553 -121.397828 252 16826ft 317kts
13-Apr-20 18:10 45.586966 -121.512008 254 15321ft 307kts
13-Apr-20 18:11 45.555833 -121.623661 253 13817ft 298kts
13-Apr-20 18:12 45.530639 -121.731894 272 12330ft 283kts
13-Apr-20 18:13 45.534491 -121.842424 277 10836ft 277kts
13-Apr-20 18:14 45.538545 -121.951405 276 9340ft 274kts
13-Apr-20 18:15 45.537136 -122.051154 254 7755ft 235kts
13-Apr-20 18:16 45.517119 -122.133444 255 6223ft 217kts
13-Apr-20 18:17 45.498224 -122.211462 255 5848ft 195kts
13-Apr-20 18:18 45.483579 -122.287708 289 4333ft 198kts
13-Apr-20 18:19 45.502957 -122.355440 295 4015ft 169kts
13-Apr-20 18:20 45.522203 -122.410835 299 2841ft 155kts
13-Apr-20 18:21 45.543183 -122.464181 301 1783ft 149kts
13-Apr-20 18:22 45.561718 -122.511297 301 1120ft 128kts
13-Apr-20 18:23 45.578472 -122.553736 302 316ft 116kts
13-Apr-20 18:24 45.589688 -122.582524 296 27ft 28kts
13-Apr-20 18:25 45.589710 -122.585781 118 27ft 12kts
13-Apr-20 18:26 45.587276 -122.581800 124 27ft 13kts
13-Apr-20 18:27 45.585332 -122.580151 48 27ft 2kts
13-Apr-20 18:28 45.585340 -122.580145 28 27ft 0kts

Navigation Log

Ident Type
Flight plan parsing failed, navigation log unavailable